sensor_id;sensor_type;location;lat;lon;timestamp;P1;P2;P0
14880;PMS7003;7533;51.278;12.588;2023-11-21T00:03:37;1.00;1.00;0.00
14880;PMS7003;7533;51.278;12.588;2023-11-21T00:08:41;1.00;1.00;0.50
14880;PMS7003;7533;51.278;12.588;2023-11-21T00:13:44;0.00;0.00;0.00
14880;PMS7003;7533;51.278;12.588;2023-11-21T00:18:51;0.50;0.50;0.25
14880;PMS7003;7533;51.278;12.588;2023-11-21T00:23:55;0.50;0.50;0.50
14880;PMS7003;7533;51.278;12.588;2023-11-21T00:28:58;1.00;1.00;0.00
14880;PMS7003;7533;51.278;12.588;2023-11-21T00:34:02;0.00;0.00;0.00
14880;PMS7003;7533;51.278;12.588;2023-11-21T00:39:06;1.00;1.00;0.00
14880;PMS7003;7533;51.278;12.588;2023-11-21T00:44:10;0.00;0.00;0.00
14880;PMS7003;7533;51.278;12.588;2023-11-21T00:49:13;1.00;1.00;0.00
14880;PMS7003;7533;51.278;12.588;2023-11-21T00:54:18;0.50;0.50;0.00
14880;PMS7003;7533;51.278;12.588;2023-11-21T00:59:21;1.00;1.00;0.50
14880;PMS7003;7533;51.278;12.588;2023-11-21T01:04:25;0.25;0.25;0.00
14880;PMS7003;7533;51.278;12.588;2023-11-21T01:09:30;0.00;0.00;0.00
14880;PMS7003;7533;51.278;12.588;2023-11-21T01:14:32;1.50;1.50;0.50
14880;PMS7003;7533;51.278;12.588;2023-11-21T01:19:35;0.75;0.75;0.00
14880;PMS7003;7533;51.278;12.588;2023-11-21T01:24:40;1.00;1.00;0.00
14880;PMS7003;7533;51.278;12.588;2023-11-21T01:29:43;0.75;0.50;0.00
14880;PMS7003;7533;51.278;12.588;2023-11-21T01:34:47;1.00;1.00;0.00
14880;PMS7003;7533;51.278;12.588;2023-11-21T01:39:51;1.00;0.00;0.00
14880;PMS7003;7533;51.278;12.588;2023-11-21T01:44:54;1.00;1.00;0.00
14880;PMS7003;7533;51.278;12.588;2023-11-21T01:49:57;0.00;0.00;0.00
14880;PMS7003;7533;51.278;12.588;2023-11-21T01:55:03;1.00;1.00;0.00
14880;PMS7003;7533;51.278;12.588;2023-11-21T02:00:10;1.00;1.00;0.50
14880;PMS7003;7533;51.278;12.588;2023-11-21T02:05:18;0.25;0.25;0.00
14880;PMS7003;7533;51.278;12.588;2023-11-21T02:10:23;0.00;0.00;0.00
14880;PMS7003;7533;51.278;12.588;2023-11-21T02:15:26;2.00;0.50;0.00
14880;PMS7003;7533;51.278;12.588;2023-11-21T02:20:30;0.00;0.00;0.00
14880;PMS7003;7533;51.278;12.588;2023-11-21T02:25:39;0.25;0.25;0.00
14880;PMS7003;7533;51.278;12.588;2023-11-21T02:30:44;1.00;1.00;0.00
14880;PMS7003;7533;51.278;12.588;2023-11-21T02:35:48;0.25;0.25;0.00
14880;PMS7003;7533;51.278;12.588;2023-11-21T02:40:52;1.00;1.00;1.00
14880;PMS7003;7533;51.278;12.588;2023-11-21T02:45:55;0.00;0.00;0.00
14880;PMS7003;7533;51.278;12.588;2023-11-21T02:50:58;1.00;1.00;0.00
14880;PMS7003;7533;51.278;12.588;2023-11-21T02:56:02;1.00;1.00;0.00
14880;PMS7003;7533;51.278;12.588;2023-11-21T03:01:05;0.00;0.00;0.00
14880;PMS7003;7533;51.278;12.588;2023-11-21T03:06:08;1.00;1.00;0.00
14880;PMS7003;7533;51.278;12.588;2023-11-21T03:11:13;2.00;0.75;0.00
14880;PMS7003;7533;51.278;12.588;2023-11-21T03:16:16;0.75;0.75;0.00
14880;PMS7003;7533;51.278;12.588;2023-11-21T03:21:21;1.00;1.00;1.00
14880;PMS7003;7533;51.278;12.588;2023-11-21T03:26:25;0.00;0.00;0.00
14880;PMS7003;7533;51.278;12.588;2023-11-21T03:31:28;1.25;0.00;0.00
14880;PMS7003;7533;51.278;12.588;2023-11-21T03:36:31;1.50;1.50;0.00
14880;PMS7003;7533;51.278;12.588;2023-11-21T03:41:35;1.25;0.00;0.00
14880;PMS7003;7533;51.278;12.588;2023-11-21T03:46:38;0.25;0.25;0.00
14880;PMS7003;7533;51.278;12.588;2023-11-21T03:51:41;0.00;0.00;0.00
14880;PMS7003;7533;51.278;12.588;2023-11-21T03:56:45;0.00;0.00;0.00
14880;PMS7003;7533;51.278;12.588;2023-11-21T04:01:49;0.00;0.00;0.00
14880;PMS7003;7533;51.278;12.588;2023-11-21T04:06:52;0.75;0.75;0.00
14880;PMS7003;7533;51.278;12.588;2023-11-21T04:11:56;1.50;1.50;0.00
14880;PMS7003;7533;51.278;12.588;2023-11-21T04:16:59;0.00;0.00;0.00
14880;PMS7003;7533;51.278;12.588;2023-11-21T04:22:02;0.00;0.00;0.00
14880;PMS7003;7533;51.278;12.588;2023-11-21T04:27:06;0.00;0.00;0.00
14880;PMS7003;7533;51.278;12.588;2023-11-21T04:32:09;0.50;0.50;0.00
14880;PMS7003;7533;51.278;12.588;2023-11-21T04:37:14;0.00;0.00;0.00
14880;PMS7003;7533;51.278;12.588;2023-11-21T04:42:18;0.50;0.50;0.00
14880;PMS7003;7533;51.278;12.588;2023-11-21T04:47:21;1.00;1.00;0.00
14880;PMS7003;7533;51.278;12.588;2023-11-21T04:52:25;0.75;0.75;0.00
14880;PMS7003;7533;51.278;12.588;2023-11-21T04:57:29;1.00;1.00;0.00
14880;PMS7003;7533;51.278;12.588;2023-11-21T05:02:32;1.00;1.00;0.00
14880;PMS7003;7533;51.278;12.588;2023-11-21T05:07:37;0.00;0.00;0.00
14880;PMS7003;7533;51.278;12.588;2023-11-21T05:12:42;0.00;0.00;0.00
14880;PMS7003;7533;51.278;12.588;2023-11-21T05:17:45;2.50;0.75;0.00
14880;PMS7003;7533;51.278;12.588;2023-11-21T05:22:51;0.00;0.00;0.00
14880;PMS7003;7533;51.278;12.588;2023-11-21T05:27:55;1.25;0.25;0.00
14880;PMS7003;7533;51.278;12.588;2023-11-21T05:33:00;0.00;0.00;0.00
14880;PMS7003;7533;51.278;12.588;2023-11-21T05:38:03;0.00;0.00;0.00
14880;PMS7003;7533;51.278;12.588;2023-11-21T05:43:08;1.00;1.00;0.00
14880;PMS7003;7533;51.278;12.588;2023-11-21T05:48:11;0.00;0.00;0.00
14880;PMS7003;7533;51.278;12.588;2023-11-21T05:53:13;0.00;0.00;0.00
14880;PMS7003;7533;51.278;12.588;2023-11-21T05:58:18;0.00;0.00;0.00
14880;PMS7003;7533;51.278;12.588;2023-11-21T06:03:21;0.00;0.00;0.00
14880;PMS7003;7533;51.278;12.588;2023-11-21T06:08:24;0.50;0.00;0.00
14880;PMS7003;7533;51.278;12.588;2023-11-21T06:13:29;0.50;0.50;0.00
14880;PMS7003;7533;51.278;12.588;2023-11-21T06:18:32;0.00;0.00;0.00
14880;PMS7003;7533;51.278;12.588;2023-11-21T06:23:36;0.00;0.00;0.00
14880;PMS7003;7533;51.278;12.588;2023-11-21T06:28:40;0.50;0.50;0.00
14880;PMS7003;7533;51.278;12.588;2023-11-21T06:33:43;0.00;0.00;0.00
14880;PMS7003;7533;51.278;12.588;2023-11-21T06:38:46;1.00;1.00;0.00
14880;PMS7003;7533;51.278;12.588;2023-11-21T06:43:50;0.00;0.00;0.00
14880;PMS7003;7533;51.278;12.588;2023-11-21T06:48:54;1.00;1.00;0.00
14880;PMS7003;7533;51.278;12.588;2023-11-21T06:53:57;0.75;0.75;0.00
14880;PMS7003;7533;51.278;12.588;2023-11-21T06:59:01;1.00;1.00;0.00
14880;PMS7003;7533;51.278;12.588;2023-11-21T07:04:07;0.25;0.25;0.00
14880;PMS7003;7533;51.278;12.588;2023-11-21T07:09:10;1.00;1.00;0.00
14880;PMS7003;7533;51.278;12.588;2023-11-21T07:14:15;1.00;1.00;0.00
14880;PMS7003;7533;51.278;12.588;2023-11-21T07:19:18;0.00;0.00;0.00
14880;PMS7003;7533;51.278;12.588;2023-11-21T07:24:21;1.00;1.00;0.00
14880;PMS7003;7533;51.278;12.588;2023-11-21T07:29:29;0.25;0.00;0.00
14880;PMS7003;7533;51.278;12.588;2023-11-21T07:34:32;2.00;2.00;1.00
14880;PMS7003;7533;51.278;12.588;2023-11-21T07:39:35;1.00;1.00;0.00
14880;PMS7003;7533;51.278;12.588;2023-11-21T07:44:39;1.00;1.00;0.00
14880;PMS7003;7533;51.278;12.588;2023-11-21T07:49:42;1.00;1.00;0.00
14880;PMS7003;7533;51.278;12.588;2023-11-21T07:54:46;6.50;6.50;4.00
14880;PMS7003;7533;51.278;12.588;2023-11-21T07:59:50;9.75;7.00;4.00
14880;PMS7003;7533;51.278;12.588;2023-11-21T08:04:55;10.00;8.50;5.75
14880;PMS7003;7533;51.278;12.588;2023-11-21T08:09:59;6.25;4.50;3.00
14880;PMS7003;7533;51.278;12.588;2023-11-21T08:15:03;6.75;5.50;3.25
14880;PMS7003;7533;51.278;12.588;2023-11-21T08:20:08;5.25;5.25;3.00
14880;PMS7003;7533;51.278;12.588;2023-11-21T08:25:13;5.75;5.75;3.25
14880;PMS7003;7533;51.278;12.588;2023-11-21T08:30:18;4.00;4.00;2.25
14880;PMS7003;7533;51.278;12.588;2023-11-21T08:35:22;3.75;3.75;3.00
14880;PMS7003;7533;51.278;12.588;2023-11-21T08:40:25;5.00;4.00;3.00
14880;PMS7003;7533;51.278;12.588;2023-11-21T08:45:30;5.00;4.50;3.25
14880;PMS7003;7533;51.278;12.588;2023-11-21T08:50:34;3.25;3.25;2.00
14880;PMS7003;7533;51.278;12.588;2023-11-21T08:55:37;5.25;5.25;3.00
14880;PMS7003;7533;51.278;12.588;2023-11-21T09:00:41;9.50;8.00;5.00
14880;PMS7003;7533;51.278;12.588;2023-11-21T09:05:46;9.75;7.00;4.50
14880;PMS7003;7533;51.278;12.588;2023-11-21T09:10:48;11.00;10.00;5.00
14880;PMS7003;7533;51.278;12.588;2023-11-21T09:15:53;12.75;12.25;6.00
14880;PMS7003;7533;51.278;12.588;2023-11-21T09:20:56;14.50;11.50;5.75
14880;PMS7003;7533;51.278;12.588;2023-11-21T09:25:59;11.00;10.00;5.00
14880;PMS7003;7533;51.278;12.588;2023-11-21T09:31:04;14.25;12.50;7.25
14880;PMS7003;7533;51.278;12.588;2023-11-21T09:36:13;11.25;11.00;6.75
14880;PMS7003;7533;51.278;12.588;2023-11-21T09:41:19;9.75;9.75;6.00
14880;PMS7003;7533;51.278;12.588;2023-11-21T09:46:42;13.00;9.50;6.50
14880;PMS7003;7533;51.278;12.588;2023-11-21T09:51:45;10.33;7.33;5.00
14880;PMS7003;7533;51.278;12.588;2023-11-21T09:56:50;9.75;7.25;5.00
14880;PMS7003;7533;51.278;12.588;2023-11-21T10:01:55;9.25;8.50;5.00
14880;PMS7003;7533;51.278;12.588;2023-11-21T10:07:01;9.50;9.00;5.50
14880;PMS7003;7533;51.278;12.588;2023-11-21T10:12:05;8.50;7.50;3.75
14880;PMS7003;7533;51.278;12.588;2023-11-21T10:17:12;6.00;5.00;3.50
14880;PMS7003;7533;51.278;12.588;2023-11-21T10:22:17;7.00;6.50;4.00
14880;PMS7003;7533;51.278;12.588;2023-11-21T10:27:23;7.00;7.00;3.50
14880;PMS7003;7533;51.278;12.588;2023-11-21T10:32:30;8.75;7.00;4.00
14880;PMS7003;7533;51.278;12.588;2023-11-21T10:37:34;7.00;6.00;4.00
14880;PMS7003;7533;51.278;12.588;2023-11-21T10:42:37;5.50;5.00;4.00
14880;PMS7003;7533;51.278;12.588;2023-11-21T10:47:42;5.75;5.75;3.50
14880;PMS7003;7533;51.278;12.588;2023-11-21T10:52:46;5.25;5.00;3.00
14880;PMS7003;7533;51.278;12.588;2023-11-21T10:57:51;5.00;5.00;3.00
14880;PMS7003;7533;51.278;12.588;2023-11-21T11:02:57;6.00;5.25;3.25
14880;PMS7003;7533;51.278;12.588;2023-11-21T11:08:02;7.00;6.00;3.50
14880;PMS7003;7533;51.278;12.588;2023-11-21T11:13:07;6.25;5.50;3.00
14880;PMS7003;7533;51.278;12.588;2023-11-21T11:18:12;6.75;6.00;3.00
14880;PMS7003;7533;51.278;12.588;2023-11-21T11:23:29;4.50;4.00;3.00
14880;PMS7003;7533;51.278;12.588;2023-11-21T11:28:51;5.50;4.00;2.50
14880;PMS7003;7533;51.278;12.588;2023-11-21T11:34:07;6.00;5.00;2.00
14880;PMS7003;7533;51.278;12.588;2023-11-21T11:39:26;7.75;6.00;3.25
14880;PMS7003;7533;51.278;12.588;2023-11-21T11:44:48;5.50;5.50;3.00
14880;PMS7003;7533;51.278;12.588;2023-11-21T11:50:03;4.50;4.00;2.25
14880;PMS7003;7533;51.278;12.588;2023-11-21T11:55:13;4.25;3.00;2.00
14880;PMS7003;7533;51.278;12.588;2023-11-21T12:00:20;4.75;4.75;2.75
14880;PMS7003;7533;51.278;12.588;2023-11-21T12:05:28;4.25;3.75;2.50
14880;PMS7003;7533;51.278;12.588;2023-11-21T12:10:35;6.00;4.25;2.50
14880;PMS7003;7533;51.278;12.588;2023-11-21T12:15:39;4.50;4.00;2.00
14880;PMS7003;7533;51.278;12.588;2023-11-21T12:20:45;5.50;5.00;2.50
14880;PMS7003;7533;51.278;12.588;2023-11-21T12:25:50;4.75;4.75;3.00
14880;PMS7003;7533;51.278;12.588;2023-11-21T12:30:53;6.00;6.00;3.00
14880;PMS7003;7533;51.278;12.588;2023-11-21T12:36:16;5.75;5.50;3.50
14880;PMS7003;7533;51.278;12.588;2023-11-21T12:41:19;3.50;3.50;2.00
14880;PMS7003;7533;51.278;12.588;2023-11-21T12:46:23;4.50;4.50;2.50
14880;PMS7003;7533;51.278;12.588;2023-11-21T12:51:28;5.00;3.50;2.00
14880;PMS7003;7533;51.278;12.588;2023-11-21T12:56:31;8.00;7.00;3.00
14880;PMS7003;7533;51.278;12.588;2023-11-21T13:01:34;3.75;3.75;2.00
14880;PMS7003;7533;51.278;12.588;2023-11-21T13:06:40;4.25;4.25;3.00
14880;PMS7003;7533;51.278;12.588;2023-11-21T13:11:43;6.00;5.25;2.25
14880;PMS7003;7533;51.278;12.588;2023-11-21T13:16:47;4.50;4.25;3.00
14880;PMS7003;7533;51.278;12.588;2023-11-21T13:21:51;4.00;4.00;3.00
14880;PMS7003;7533;51.278;12.588;2023-11-21T13:26:55;4.00;3.75;2.00
14880;PMS7003;7533;51.278;12.588;2023-11-21T13:31:59;5.75;4.00;2.25
14880;PMS7003;7533;51.278;12.588;2023-11-21T13:37:04;6.25;4.75;2.00
14880;PMS7003;7533;51.278;12.588;2023-11-21T13:42:09;3.00;3.00;2.25
14880;PMS7003;7533;51.278;12.588;2023-11-21T13:47:13;5.00;3.00;2.00
14880;PMS7003;7533;51.278;12.588;2023-11-21T13:52:17;3.00;3.00;2.25
14880;PMS7003;7533;51.278;12.588;2023-11-21T13:57:24;3.00;3.00;2.00
14880;PMS7003;7533;51.278;12.588;2023-11-21T14:02:28;5.00;4.25;2.50
14880;PMS7003;7533;51.278;12.588;2023-11-21T14:07:40;2.75;2.75;2.00
14880;PMS7003;7533;51.278;12.588;2023-11-21T14:12:49;4.75;3.00;2.00
14880;PMS7003;7533;51.278;12.588;2023-11-21T14:17:52;2.50;2.50;1.00
14880;PMS7003;7533;51.278;12.588;2023-11-21T14:22:57;3.75;3.50;2.75
14880;PMS7003;7533;51.278;12.588;2023-11-21T14:28:00;3.75;3.00;2.00
14880;PMS7003;7533;51.278;12.588;2023-11-21T14:33:04;4.75;3.50;2.00
14880;PMS7003;7533;51.278;12.588;2023-11-21T14:38:11;5.00;4.75;3.00
14880;PMS7003;7533;51.278;12.588;2023-11-21T14:43:15;3.75;3.75;2.00
14880;PMS7003;7533;51.278;12.588;2023-11-21T14:48:20;5.25;3.50;2.25
14880;PMS7003;7533;51.278;12.588;2023-11-21T14:53:39;4.25;3.25;1.00
14880;PMS7003;7533;51.278;12.588;2023-11-21T14:58:50;3.75;3.00;2.00
14880;PMS7003;7533;51.278;12.588;2023-11-21T15:03:53;6.00;4.00;2.75
14880;PMS7003;7533;51.278;12.588;2023-11-21T15:08:58;6.50;5.25;2.00
14880;PMS7003;7533;51.278;12.588;2023-11-21T15:14:18;6.50;5.00;2.50
14880;PMS7003;7533;51.278;12.588;2023-11-21T15:19:26;2.75;2.75;1.00
14880;PMS7003;7533;51.278;12.588;2023-11-21T15:24:31;2.50;2.00;1.00
14880;PMS7003;7533;51.278;12.588;2023-11-21T15:29:34;3.00;3.00;2.25
14880;PMS7003;7533;51.278;12.588;2023-11-21T15:34:37;2.25;2.25;1.00
14880;PMS7003;7533;51.278;12.588;2023-11-21T15:39:42;4.50;3.50;1.50
14880;PMS7003;7533;51.278;12.588;2023-11-21T15:44:46;2.50;2.50;1.00
14880;PMS7003;7533;51.278;12.588;2023-11-21T15:49:49;2.75;2.75;2.00
14880;PMS7003;7533;51.278;12.588;2023-11-21T15:54:53;3.75;2.50;1.75
14880;PMS7003;7533;51.278;12.588;2023-11-21T15:59:56;3.75;3.00;2.00
14880;PMS7003;7533;51.278;12.588;2023-11-21T16:04:59;2.50;2.50;1.75
14880;PMS7003;7533;51.278;12.588;2023-11-21T16:10:06;3.00;2.50;2.00
14880;PMS7003;7533;51.278;12.588;2023-11-21T16:15:12;1.50;1.50;1.00
14880;PMS7003;7533;51.278;12.588;2023-11-21T16:20:15;3.75;3.00;1.00
14880;PMS7003;7533;51.278;12.588;2023-11-21T16:25:19;4.00;4.00;1.75
14880;PMS7003;7533;51.278;12.588;2023-11-21T16:30:22;3.00;3.00;2.00
14880;PMS7003;7533;51.278;12.588;2023-11-21T16:35:26;3.25;2.00;1.00
14880;PMS7003;7533;51.278;12.588;2023-11-21T16:40:30;3.75;3.75;2.00
14880;PMS7003;7533;51.278;12.588;2023-11-21T16:45:33;4.25;2.00;1.00
14880;PMS7003;7533;51.278;12.588;2023-11-21T16:50:36;2.50;2.00;1.00
14880;PMS7003;7533;51.278;12.588;2023-11-21T16:55:40;3.50;2.00;1.00
14880;PMS7003;7533;51.278;12.588;2023-11-21T17:00:43;4.00;4.00;1.00
14880;PMS7003;7533;51.278;12.588;2023-11-21T17:05:49;1.00;1.00;0.00
14880;PMS7003;7533;51.278;12.588;2023-11-21T17:10:53;3.50;1.00;1.00
14880;PMS7003;7533;51.278;12.588;2023-11-21T17:15:56;3.00;3.00;1.75
14880;PMS7003;7533;51.278;12.588;2023-11-21T17:20:59;3.00;3.00;1.00
14880;PMS7003;7533;51.278;12.588;2023-11-21T17:26:03;3.25;3.00;2.00
14880;PMS7003;7533;51.278;12.588;2023-11-21T17:31:06;2.00;2.00;1.00
14880;PMS7003;7533;51.278;12.588;2023-11-21T17:36:10;2.25;2.25;2.00
14880;PMS7003;7533;51.278;12.588;2023-11-21T17:41:20;2.00;1.75;1.00
14880;PMS7003;7533;51.278;12.588;2023-11-21T17:46:24;3.50;2.00;1.00
14880;PMS7003;7533;51.278;12.588;2023-11-21T17:51:27;3.00;3.00;2.00
14880;PMS7003;7533;51.278;12.588;2023-11-21T17:56:32;4.00;3.00;2.00
14880;PMS7003;7533;51.278;12.588;2023-11-21T18:01:36;5.00;4.00;2.00
14880;PMS7003;7533;51.278;12.588;2023-11-21T18:06:40;4.25;4.25;3.00
14880;PMS7003;7533;51.278;12.588;2023-11-21T18:11:45;3.50;3.50;2.00
14880;PMS7003;7533;51.278;12.588;2023-11-21T18:16:49;4.75;4.25;2.25
14880;PMS7003;7533;51.278;12.588;2023-11-21T18:21:53;4.50;4.00;2.50
14880;PMS7003;7533;51.278;12.588;2023-11-21T18:26:57;7.25;4.50;3.00
14880;PMS7003;7533;51.278;12.588;2023-11-21T18:32:00;4.00;4.00;3.00
14880;PMS7003;7533;51.278;12.588;2023-11-21T18:37:05;4.75;4.75;2.75
14880;PMS7003;7533;51.278;12.588;2023-11-21T18:42:10;4.50;3.75;2.50
14880;PMS7003;7533;51.278;12.588;2023-11-21T18:47:13;5.00;4.50;2.00
14880;PMS7003;7533;51.278;12.588;2023-11-21T18:52:17;5.25;3.75;2.00
14880;PMS7003;7533;51.278;12.588;2023-11-21T18:57:21;4.50;4.50;2.25
14880;PMS7003;7533;51.278;12.588;2023-11-21T19:02:24;4.00;4.00;2.00
14880;PMS7003;7533;51.278;12.588;2023-11-21T19:07:28;3.75;3.75;3.00
14880;PMS7003;7533;51.278;12.588;2023-11-21T19:12:37;4.75;4.75;3.50
14880;PMS7003;7533;51.278;12.588;2023-11-21T19:17:40;4.75;4.00;3.00
14880;PMS7003;7533;51.278;12.588;2023-11-21T19:22:44;6.00;4.00;3.00
14880;PMS7003;7533;51.278;12.588;2023-11-21T19:27:48;4.00;4.00;3.00
14880;PMS7003;7533;51.278;12.588;2023-11-21T19:32:52;5.50;5.00;2.50
14880;PMS7003;7533;51.278;12.588;2023-11-21T19:37:56;5.25;4.00;2.00
14880;PMS7003;7533;51.278;12.588;2023-11-21T19:43:01;5.75;3.50;2.50
14880;PMS7003;7533;51.278;12.588;2023-11-21T19:48:05;5.00;5.00;3.00
14880;PMS7003;7533;51.278;12.588;2023-11-21T19:53:10;4.00;4.00;3.00
14880;PMS7003;7533;51.278;12.588;2023-11-21T19:58:14;5.50;4.50;3.50
14880;PMS7003;7533;51.278;12.588;2023-11-21T20:03:18;4.00;3.25;2.25
14880;PMS7003;7533;51.278;12.588;2023-11-21T20:08:23;5.50;5.50;3.50
14880;PMS7003;7533;51.278;12.588;2023-11-21T20:13:27;5.00;5.00;3.00
14880;PMS7003;7533;51.278;12.588;2023-11-21T20:18:30;3.00;3.00;2.00
14880;PMS7003;7533;51.278;12.588;2023-11-21T20:23:33;5.75;4.50;3.00
14880;PMS7003;7533;51.278;12.588;2023-11-21T20:28:39;5.00;4.50;2.00
14880;PMS7003;7533;51.278;12.588;2023-11-21T20:33:44;4.75;4.75;4.00
14880;PMS7003;7533;51.278;12.588;2023-11-21T20:38:47;6.00;5.75;2.50
14880;PMS7003;7533;51.278;12.588;2023-11-21T20:43:52;6.00;5.50;3.00
14880;PMS7003;7533;51.278;12.588;2023-11-21T20:48:54;5.00;5.00;3.00
14880;PMS7003;7533;51.278;12.588;2023-11-21T20:53:57;5.00;5.00;3.00
14880;PMS7003;7533;51.278;12.588;2023-11-21T20:59:02;6.00;5.00;4.00
14880;PMS7003;7533;51.278;12.588;2023-11-21T21:04:08;7.50;7.50;4.50
14880;PMS7003;7533;51.278;12.588;2023-11-21T21:09:11;5.25;5.25;3.00
14880;PMS7003;7533;51.278;12.588;2023-11-21T21:14:16;5.50;5.00;3.75
14880;PMS7003;7533;51.278;12.588;2023-11-21T21:19:20;7.00;7.00;3.75
14880;PMS7003;7533;51.278;12.588;2023-11-21T21:24:22;7.00;4.00;3.00
14880;PMS7003;7533;51.278;12.588;2023-11-21T21:29:26;5.75;5.00;3.25
14880;PMS7003;7533;51.278;12.588;2023-11-21T21:34:29;7.00;7.00;4.00
14880;PMS7003;7533;51.278;12.588;2023-11-21T21:39:32;8.25;7.00;5.00
14880;PMS7003;7533;51.278;12.588;2023-11-21T21:44:37;8.25;7.00;4.00
14880;PMS7003;7533;51.278;12.588;2023-11-21T21:49:40;6.25;6.25;3.50
14880;PMS7003;7533;51.278;12.588;2023-11-21T21:54:43;9.50;6.75;4.00
14880;PMS7003;7533;51.278;12.588;2023-11-21T21:59:49;4.75;4.75;3.00
14880;PMS7003;7533;51.278;12.588;2023-11-21T22:04:52;5.50;5.50;4.50
14880;PMS7003;7533;51.278;12.588;2023-11-21T22:09:55;7.25;7.00;5.00
14880;PMS7003;7533;51.278;12.588;2023-11-21T22:15:00;7.75;7.00;4.00
14880;PMS7003;7533;51.278;12.588;2023-11-21T22:20:03;9.25;7.25;5.00
14880;PMS7003;7533;51.278;12.588;2023-11-21T22:25:07;6.00;5.50;4.00
14880;PMS7003;7533;51.278;12.588;2023-11-21T22:30:12;8.50;6.75;5.00
14880;PMS7003;7533;51.278;12.588;2023-11-21T22:35:16;6.75;6.75;4.00
14880;PMS7003;7533;51.278;12.588;2023-11-21T22:40:19;6.00;6.00;4.00
14880;PMS7003;7533;51.278;12.588;2023-11-21T22:45:23;6.75;6.75;3.50
14880;PMS7003;7533;51.278;12.588;2023-11-21T22:50:26;8.25;8.00;5.50
14880;PMS7003;7533;51.278;12.588;2023-11-21T22:55:29;6.50;6.50;4.00
14880;PMS7003;7533;51.278;12.588;2023-11-21T23:00:35;6.50;6.25;4.50
14880;PMS7003;7533;51.278;12.588;2023-11-21T23:05:38;5.50;5.50;3.75
14880;PMS7003;7533;51.278;12.588;2023-11-21T23:10:41;5.75;5.50;4.00
14880;PMS7003;7533;51.278;12.588;2023-11-21T23:15:46;7.25;6.50;5.00
14880;PMS7003;7533;51.278;12.588;2023-11-21T23:20:52;7.00;6.50;3.00
14880;PMS7003;7533;51.278;12.588;2023-11-21T23:25:56;5.75;4.25;3.00
14880;PMS7003;7533;51.278;12.588;2023-11-21T23:31:00;7.50;6.25;3.75
14880;PMS7003;7533;51.278;12.588;2023-11-21T23:36:04;5.75;5.75;4.00
14880;PMS7003;7533;51.278;12.588;2023-11-21T23:41:07;8.25;6.25;4.25
14880;PMS7003;7533;51.278;12.588;2023-11-21T23:46:12;5.25;4.75;3.00
14880;PMS7003;7533;51.278;12.588;2023-11-21T23:51:15;6.75;6.00;4.00
14880;PMS7003;7533;51.278;12.588;2023-11-21T23:56:18;5.00;5.00;3.25
